sensor_id;sensor_type;location;lat;lon;timestamp;temperature;humidity
15834;DHT22;8017;50.812;4.934;2023-02-01T00:02:48;6.00;99.90
15834;DHT22;8017;50.812;4.934;2023-02-01T00:05:56;6.00;99.90
15834;DHT22;8017;50.812;4.934;2023-02-01T00:08:58;6.00;99.90
15834;DHT22;8017;50.812;4.934;2023-02-01T00:12:02;6.10;99.90
15834;DHT22;8017;50.812;4.934;2023-02-01T00:15:04;6.10;99.90
15834;DHT22;8017;50.812;4.934;2023-02-01T00:18:06;6.10;99.90
15834;DHT22;8017;50.812;4.934;2023-02-01T00:21:10;6.10;99.90
15834;DHT22;8017;50.812;4.934;2023-02-01T00:24:12;6.10;99.90
15834;DHT22;8017;50.812;4.934;2023-02-01T00:27:16;6.10;99.90
15834;DHT22;8017;50.812;4.934;2023-02-01T00:30:20;6.20;99.90
15834;DHT22;8017;50.812;4.934;2023-02-01T00:33:22;6.10;99.90
15834;DHT22;8017;50.812;4.934;2023-02-01T00:36:24;6.20;99.90
15834;DHT22;8017;50.812;4.934;2023-02-01T00:39:26;6.10;99.90
15834;DHT22;8017;50.812;4.934;2023-02-01T00:42:29;6.10;99.90
15834;DHT22;8017;50.812;4.934;2023-02-01T00:45:32;6.10;99.90
15834;DHT22;8017;50.812;4.934;2023-02-01T00:48:34;6.10;99.90
15834;DHT22;8017;50.812;4.934;2023-02-01T00:51:36;6.20;99.90
15834;DHT22;8017;50.812;4.934;2023-02-01T00:54:38;6.20;99.90
15834;DHT22;8017;50.812;4.934;2023-02-01T00:57:41;6.20;99.90
15834;DHT22;8017;50.812;4.934;2023-02-01T01:00:43;6.20;99.90
15834;DHT22;8017;50.812;4.934;2023-02-01T01:03:47;6.20;99.90
15834;DHT22;8017;50.812;4.934;2023-02-01T01:06:51;6.20;99.90
15834;DHT22;8017;50.812;4.934;2023-02-01T01:09:52;6.30;99.90
15834;DHT22;8017;50.812;4.934;2023-02-01T01:12:56;6.30;99.90
15834;DHT22;8017;50.812;4.934;2023-02-01T01:16:00;6.30;99.90
15834;DHT22;8017;50.812;4.934;2023-02-01T01:19:03;6.30;99.90
15834;DHT22;8017;50.812;4.934;2023-02-01T01:22:05;6.30;99.90
15834;DHT22;8017;50.812;4.934;2023-02-01T01:25:07;6.30;99.90
15834;DHT22;8017;50.812;4.934;2023-02-01T01:28:10;6.30;99.90
15834;DHT22;8017;50.812;4.934;2023-02-01T01:31:14;6.30;99.90
15834;DHT22;8017;50.812;4.934;2023-02-01T01:34:16;6.30;99.90
15834;DHT22;8017;50.812;4.934;2023-02-01T01:37:18;6.30;99.90
15834;DHT22;8017;50.812;4.934;2023-02-01T01:40:20;6.30;99.90
15834;DHT22;8017;50.812;4.934;2023-02-01T01:43:23;6.30;99.90
15834;DHT22;8017;50.812;4.934;2023-02-01T01:46:28;6.30;99.90
15834;DHT22;8017;50.812;4.934;2023-02-01T01:49:30;6.20;99.90
15834;DHT22;8017;50.812;4.934;2023-02-01T01:52:32;6.20;99.90
15834;DHT22;8017;50.812;4.934;2023-02-01T01:55:37;6.30;99.90
15834;DHT22;8017;50.812;4.934;2023-02-01T01:58:42;6.20;99.90
15834;DHT22;8017;50.812;4.934;2023-02-01T02:01:45;6.30;99.90
15834;DHT22;8017;50.812;4.934;2023-02-01T02:04:47;6.30;99.90
15834;DHT22;8017;50.812;4.934;2023-02-01T02:07:51;6.30;99.90
15834;DHT22;8017;50.812;4.934;2023-02-01T02:10:55;6.30;99.90
15834;DHT22;8017;50.812;4.934;2023-02-01T02:14:06;6.30;99.90
15834;DHT22;8017;50.812;4.934;2023-02-01T02:17:26;6.30;99.90
15834;DHT22;8017;50.812;4.934;2023-02-01T02:20:45;6.30;99.90
15834;DHT22;8017;50.812;4.934;2023-02-01T02:24:09;6.40;99.90
15834;DHT22;8017;50.812;4.934;2023-02-01T02:27:22;6.40;99.90
15834;DHT22;8017;50.812;4.934;2023-02-01T02:31:04;6.30;99.90
15834;DHT22;8017;50.812;4.934;2023-02-01T02:34:15;6.30;99.90
15834;DHT22;8017;50.812;4.934;2023-02-01T02:37:27;6.30;99.90
15834;DHT22;8017;50.812;4.934;2023-02-01T02:40:40;6.30;99.90
15834;DHT22;8017;50.812;4.934;2023-02-01T02:43:46;6.40;99.90
15834;DHT22;8017;50.812;4.934;2023-02-01T02:47:13;6.30;99.90
15834;DHT22;8017;50.812;4.934;2023-02-01T02:50:32;6.10;99.90
15834;DHT22;8017;50.812;4.934;2023-02-01T02:53:58;5.90;99.90
15834;DHT22;8017;50.812;4.934;2023-02-01T02:57:22;5.80;99.90
15834;DHT22;8017;50.812;4.934;2023-02-01T03:00:46;5.70;99.90
15834;DHT22;8017;50.812;4.934;2023-02-01T03:04:06;5.60;99.90
15834;DHT22;8017;50.812;4.934;2023-02-01T03:07:42;5.60;99.90
15834;DHT22;8017;50.812;4.934;2023-02-01T03:10:48;5.60;99.90
15834;DHT22;8017;50.812;4.934;2023-02-01T03:13:54;5.50;99.90
15834;DHT22;8017;50.812;4.934;2023-02-01T03:16:59;5.50;99.90
15834;DHT22;8017;50.812;4.934;2023-02-01T03:20:04;5.40;99.90
15834;DHT22;8017;50.812;4.934;2023-02-01T03:23:09;5.40;99.90
15834;DHT22;8017;50.812;4.934;2023-02-01T03:26:15;5.50;99.90
15834;DHT22;8017;50.812;4.934;2023-02-01T03:29:21;5.60;99.90
15834;DHT22;8017;50.812;4.934;2023-02-01T03:32:25;5.60;99.90
15834;DHT22;8017;50.812;4.934;2023-02-01T03:35:29;5.60;99.90
15834;DHT22;8017;50.812;4.934;2023-02-01T03:38:38;5.60;99.90
15834;DHT22;8017;50.812;4.934;2023-02-01T03:41:43;5.60;99.90
15834;DHT22;8017;50.812;4.934;2023-02-01T03:44:51;5.60;99.90
15834;DHT22;8017;50.812;4.934;2023-02-01T03:47:57;5.60;99.90
15834;DHT22;8017;50.812;4.934;2023-02-01T03:51:03;5.60;99.90
15834;DHT22;8017;50.812;4.934;2023-02-01T03:54:10;5.60;99.90
15834;DHT22;8017;50.812;4.934;2023-02-01T03:57:14;5.50;99.90
15834;DHT22;8017;50.812;4.934;2023-02-01T04:00:22;5.50;99.90
15834;DHT22;8017;50.812;4.934;2023-02-01T04:03:25;5.40;99.90
15834;DHT22;8017;50.812;4.934;2023-02-01T04:06:28;5.40;99.90
15834;DHT22;8017;50.812;4.934;2023-02-01T04:09:31;5.40;99.90
15834;DHT22;8017;50.812;4.934;2023-02-01T04:12:33;5.20;99.90
15834;DHT22;8017;50.812;4.934;2023-02-01T04:15:35;5.20;99.90
15834;DHT22;8017;50.812;4.934;2023-02-01T04:18:37;5.10;99.90
15834;DHT22;8017;50.812;4.934;2023-02-01T04:21:39;5.10;99.90
15834;DHT22;8017;50.812;4.934;2023-02-01T04:24:42;5.10;99.90
15834;DHT22;8017;50.812;4.934;2023-02-01T04:27:44;5.10;99.90
15834;DHT22;8017;50.812;4.934;2023-02-01T04:30:46;5.10;99.90
15834;DHT22;8017;50.812;4.934;2023-02-01T04:33:49;5.00;99.90
15834;DHT22;8017;50.812;4.934;2023-02-01T04:36:51;5.00;99.90
15834;DHT22;8017;50.812;4.934;2023-02-01T04:39:54;5.00;99.90
15834;DHT22;8017;50.812;4.934;2023-02-01T04:42:56;4.90;99.90
15834;DHT22;8017;50.812;4.934;2023-02-01T04:45:58;4.90;99.90
15834;DHT22;8017;50.812;4.934;2023-02-01T04:49:00;4.80;99.90
15834;DHT22;8017;50.812;4.934;2023-02-01T04:52:02;4.80;99.90
15834;DHT22;8017;50.812;4.934;2023-02-01T04:55:06;4.80;99.90
15834;DHT22;8017;50.812;4.934;2023-02-01T04:58:08;4.80;99.90
15834;DHT22;8017;50.812;4.934;2023-02-01T05:01:10;4.80;99.90
15834;DHT22;8017;50.812;4.934;2023-02-01T05:04:12;4.90;99.90
15834;DHT22;8017;50.812;4.934;2023-02-01T05:07:14;4.90;99.90
15834;DHT22;8017;50.812;4.934;2023-02-01T05:10:17;4.90;99.90
15834;DHT22;8017;50.812;4.934;2023-02-01T05:13:19;4.90;99.90
15834;DHT22;8017;50.812;4.934;2023-02-01T05:16:39;4.90;99.90
15834;DHT22;8017;50.812;4.934;2023-02-01T05:19:41;4.90;99.90
15834;DHT22;8017;50.812;4.934;2023-02-01T05:22:43;4.90;99.90
15834;DHT22;8017;50.812;4.934;2023-02-01T05:25:46;4.90;99.90
15834;DHT22;8017;50.812;4.934;2023-02-01T05:28:48;4.90;99.90
15834;DHT22;8017;50.812;4.934;2023-02-01T05:31:50;4.80;99.90
15834;DHT22;8017;50.812;4.934;2023-02-01T05:34:52;4.80;99.90
15834;DHT22;8017;50.812;4.934;2023-02-01T05:37:53;4.70;99.90
15834;DHT22;8017;50.812;4.934;2023-02-01T05:40:57;4.70;99.90
15834;DHT22;8017;50.812;4.934;2023-02-01T05:43:59;4.70;99.90
15834;DHT22;8017;50.812;4.934;2023-02-01T05:47:00;4.70;99.90
15834;DHT22;8017;50.812;4.934;2023-02-01T05:50:03;4.60;99.90
15834;DHT22;8017;50.812;4.934;2023-02-01T05:53:06;4.60;99.90
15834;DHT22;8017;50.812;4.934;2023-02-01T05:56:09;4.50;99.90
15834;DHT22;8017;50.812;4.934;2023-02-01T05:59:11;4.50;99.90
15834;DHT22;8017;50.812;4.934;2023-02-01T06:02:13;4.40;99.90
15834;DHT22;8017;50.812;4.934;2023-02-01T06:05:15;4.40;99.90
15834;DHT22;8017;50.812;4.934;2023-02-01T06:08:17;4.30;99.90
15834;DHT22;8017;50.812;4.934;2023-02-01T06:11:20;4.30;99.90
15834;DHT22;8017;50.812;4.934;2023-02-01T06:14:22;4.30;99.90
15834;DHT22;8017;50.812;4.934;2023-02-01T06:17:25;4.30;99.90
15834;DHT22;8017;50.812;4.934;2023-02-01T06:20:27;4.30;99.90
15834;DHT22;8017;50.812;4.934;2023-02-01T06:23:29;4.30;99.90
15834;DHT22;8017;50.812;4.934;2023-02-01T06:26:33;4.30;99.90
15834;DHT22;8017;50.812;4.934;2023-02-01T06:29:35;4.40;99.90
15834;DHT22;8017;50.812;4.934;2023-02-01T06:32:37;4.40;99.90
15834;DHT22;8017;50.812;4.934;2023-02-01T06:35:40;4.40;99.90
15834;DHT22;8017;50.812;4.934;2023-02-01T06:38:42;4.40;99.90
15834;DHT22;8017;50.812;4.934;2023-02-01T06:41:47;4.30;99.90
15834;DHT22;8017;50.812;4.934;2023-02-01T06:44:49;4.30;99.90
15834;DHT22;8017;50.812;4.934;2023-02-01T06:47:51;4.30;99.90
15834;DHT22;8017;50.812;4.934;2023-02-01T06:50:53;4.30;99.90
15834;DHT22;8017;50.812;4.934;2023-02-01T06:53:55;4.20;99.90
15834;DHT22;8017;50.812;4.934;2023-02-01T06:57:01;4.20;99.90
15834;DHT22;8017;50.812;4.934;2023-02-01T07:00:03;4.10;99.90
15834;DHT22;8017;50.812;4.934;2023-02-01T07:03:06;4.10;99.90
15834;DHT22;8017;50.812;4.934;2023-02-01T07:06:08;4.10;99.90
15834;DHT22;8017;50.812;4.934;2023-02-01T07:09:10;4.10;99.90
15834;DHT22;8017;50.812;4.934;2023-02-01T07:12:15;4.10;99.90
15834;DHT22;8017;50.812;4.934;2023-02-01T07:15:17;4.00;99.90
15834;DHT22;8017;50.812;4.934;2023-02-01T07:18:19;4.00;99.90
15834;DHT22;8017;50.812;4.934;2023-02-01T07:21:21;4.00;99.90
15834;DHT22;8017;50.812;4.934;2023-02-01T07:24:23;4.00;99.90
15834;DHT22;8017;50.812;4.934;2023-02-01T07:27:26;4.10;99.90
15834;DHT22;8017;50.812;4.934;2023-02-01T07:30:28;4.10;99.90
15834;DHT22;8017;50.812;4.934;2023-02-01T07:33:30;4.00;99.90
15834;DHT22;8017;50.812;4.934;2023-02-01T07:36:32;3.90;99.90
15834;DHT22;8017;50.812;4.934;2023-02-01T07:39:34;4.00;99.90
15834;DHT22;8017;50.812;4.934;2023-02-01T07:42:38;3.90;99.90
15834;DHT22;8017;50.812;4.934;2023-02-01T07:45:40;3.90;99.90
15834;DHT22;8017;50.812;4.934;2023-02-01T07:48:42;3.90;99.90
15834;DHT22;8017;50.812;4.934;2023-02-01T07:51:44;3.90;99.90
15834;DHT22;8017;50.812;4.934;2023-02-01T07:54:46;4.00;99.90
15834;DHT22;8017;50.812;4.934;2023-02-01T07:57:49;4.00;99.90
15834;DHT22;8017;50.812;4.934;2023-02-01T08:00:51;4.10;99.90
15834;DHT22;8017;50.812;4.934;2023-02-01T08:04:11;4.10;99.90
15834;DHT22;8017;50.812;4.934;2023-02-01T08:07:14;4.10;99.90
15834;DHT22;8017;50.812;4.934;2023-02-01T08:10:17;4.20;99.90
15834;DHT22;8017;50.812;4.934;2023-02-01T08:13:21;4.30;99.90
15834;DHT22;8017;50.812;4.934;2023-02-01T08:16:23;4.40;99.90
15834;DHT22;8017;50.812;4.934;2023-02-01T08:19:25;4.50;99.90
15834;DHT22;8017;50.812;4.934;2023-02-01T08:22:31;4.70;99.90
15834;DHT22;8017;50.812;4.934;2023-02-01T08:25:33;4.80;99.90
15834;DHT22;8017;50.812;4.934;2023-02-01T08:28:37;4.90;99.90
15834;DHT22;8017;50.812;4.934;2023-02-01T08:31:40;5.00;99.90
15834;DHT22;8017;50.812;4.934;2023-02-01T08:34:42;5.10;99.90
15834;DHT22;8017;50.812;4.934;2023-02-01T08:37:44;5.10;99.90
15834;DHT22;8017;50.812;4.934;2023-02-01T08:40:46;5.10;99.90
15834;DHT22;8017;50.812;4.934;2023-02-01T08:43:49;5.20;99.90
15834;DHT22;8017;50.812;4.934;2023-02-01T08:46:51;5.20;99.90
15834;DHT22;8017;50.812;4.934;2023-02-01T08:49:53;5.30;99.90
15834;DHT22;8017;50.812;4.934;2023-02-01T08:52:55;5.30;99.90
15834;DHT22;8017;50.812;4.934;2023-02-01T08:55:57;5.40;99.90
15834;DHT22;8017;50.812;4.934;2023-02-01T08:59:00;5.50;99.90
15834;DHT22;8017;50.812;4.934;2023-02-01T09:02:02;5.60;99.90
15834;DHT22;8017;50.812;4.934;2023-02-01T09:05:05;5.60;99.90
15834;DHT22;8017;50.812;4.934;2023-02-01T09:08:07;5.70;99.90
15834;DHT22;8017;50.812;4.934;2023-02-01T09:11:12;5.70;99.90
15834;DHT22;8017;50.812;4.934;2023-02-01T09:14:15;5.80;99.90
15834;DHT22;8017;50.812;4.934;2023-02-01T09:17:17;5.80;99.90
15834;DHT22;8017;50.812;4.934;2023-02-01T09:20:19;5.80;99.90
15834;DHT22;8017;50.812;4.934;2023-02-01T09:23:24;5.80;99.90
15834;DHT22;8017;50.812;4.934;2023-02-01T09:26:26;5.80;99.90
15834;DHT22;8017;50.812;4.934;2023-02-01T09:29:30;5.90;99.90
15834;DHT22;8017;50.812;4.934;2023-02-01T09:32:32;5.90;99.90
15834;DHT22;8017;50.812;4.934;2023-02-01T09:35:34;5.90;99.90
15834;DHT22;8017;50.812;4.934;2023-02-01T09:38:36;6.00;99.90
15834;DHT22;8017;50.812;4.934;2023-02-01T09:41:49;6.00;99.90
15834;DHT22;8017;50.812;4.934;2023-02-01T09:45:14;6.00;99.90
15834;DHT22;8017;50.812;4.934;2023-02-01T09:48:21;6.00;99.90
15834;DHT22;8017;50.812;4.934;2023-02-01T09:51:27;5.90;99.90
15834;DHT22;8017;50.812;4.934;2023-02-01T09:54:40;6.00;99.90
15834;DHT22;8017;50.812;4.934;2023-02-01T09:57:47;6.10;99.90
15834;DHT22;8017;50.812;4.934;2023-02-01T10:00:53;6.10;99.90
15834;DHT22;8017;50.812;4.934;2023-02-01T10:04:01;6.20;99.90
15834;DHT22;8017;50.812;4.934;2023-02-01T10:07:16;6.20;99.90
15834;DHT22;8017;50.812;4.934;2023-02-01T10:10:27;6.30;99.90
15834;DHT22;8017;50.812;4.934;2023-02-01T10:13:46;6.30;99.90
15834;DHT22;8017;50.812;4.934;2023-02-01T10:16:59;6.40;99.90
15834;DHT22;8017;50.812;4.934;2023-02-01T10:20:11;6.40;99.90
15834;DHT22;8017;50.812;4.934;2023-02-01T10:23:28;6.50;99.90
15834;DHT22;8017;50.812;4.934;2023-02-01T10:26:33;6.60;99.90
15834;DHT22;8017;50.812;4.934;2023-02-01T10:29:40;6.70;99.90
15834;DHT22;8017;50.812;4.934;2023-02-01T10:32:44;6.70;99.90
15834;DHT22;8017;50.812;4.934;2023-02-01T10:35:46;6.90;99.90
15834;DHT22;8017;50.812;4.934;2023-02-01T10:38:51;7.00;99.90
15834;DHT22;8017;50.812;4.934;2023-02-01T10:41:55;7.10;99.90
15834;DHT22;8017;50.812;4.934;2023-02-01T10:45:00;7.10;99.90
15834;DHT22;8017;50.812;4.934;2023-02-01T10:48:05;7.20;99.90
15834;DHT22;8017;50.812;4.934;2023-02-01T10:51:14;7.30;99.90
15834;DHT22;8017;50.812;4.934;2023-02-01T10:54:19;7.40;99.90
15834;DHT22;8017;50.812;4.934;2023-02-01T10:57:23;7.50;99.90
15834;DHT22;8017;50.812;4.934;2023-02-01T11:00:27;7.50;99.90
15834;DHT22;8017;50.812;4.934;2023-02-01T11:03:44;7.60;99.90
15834;DHT22;8017;50.812;4.934;2023-02-01T11:06:48;7.60;99.90
15834;DHT22;8017;50.812;4.934;2023-02-01T11:09:54;7.70;99.90
15834;DHT22;8017;50.812;4.934;2023-02-01T11:12:57;7.70;99.90
15834;DHT22;8017;50.812;4.934;2023-02-01T11:16:01;7.80;99.90
15834;DHT22;8017;50.812;4.934;2023-02-01T11:19:06;7.90;99.90
15834;DHT22;8017;50.812;4.934;2023-02-01T11:22:12;8.00;99.90
15834;DHT22;8017;50.812;4.934;2023-02-01T11:25:16;8.10;99.90
15834;DHT22;8017;50.812;4.934;2023-02-01T11:28:22;8.30;99.90
15834;DHT22;8017;50.812;4.934;2023-02-01T11:31:26;8.40;99.90
15834;DHT22;8017;50.812;4.934;2023-02-01T11:34:34;8.40;99.90
15834;DHT22;8017;50.812;4.934;2023-02-01T11:37:40;8.50;99.90
15834;DHT22;8017;50.812;4.934;2023-02-01T11:40:42;8.60;99.90
15834;DHT22;8017;50.812;4.934;2023-02-01T11:43:52;8.60;99.90
15834;DHT22;8017;50.812;4.934;2023-02-01T11:46:54;8.60;99.90
15834;DHT22;8017;50.812;4.934;2023-02-01T11:49:59;8.70;99.90
15834;DHT22;8017;50.812;4.934;2023-02-01T11:53:23;8.70;99.90
15834;DHT22;8017;50.812;4.934;2023-02-01T11:56:31;8.70;99.90
15834;DHT22;8017;50.812;4.934;2023-02-01T11:59:51;8.80;99.90
15834;DHT22;8017;50.812;4.934;2023-02-01T12:06:52;8.80;99.90
15834;DHT22;8017;50.812;4.934;2023-02-01T12:10:05;8.90;99.90
15834;DHT22;8017;50.812;4.934;2023-02-01T12:13:20;9.10;99.90
15834;DHT22;8017;50.812;4.934;2023-02-01T12:16:34;9.10;99.90
15834;DHT22;8017;50.812;4.934;2023-02-01T12:19:56;9.20;99.90
15834;DHT22;8017;50.812;4.934;2023-02-01T12:23:12;9.30;99.90
15834;DHT22;8017;50.812;4.934;2023-02-01T12:26:38;9.50;99.90
15834;DHT22;8017;50.812;4.934;2023-02-01T12:29:57;9.70;99.90
15834;DHT22;8017;50.812;4.934;2023-02-01T12:33:07;9.70;99.90
15834;DHT22;8017;50.812;4.934;2023-02-01T12:36:16;9.80;99.90
15834;DHT22;8017;50.812;4.934;2023-02-01T12:39:26;9.60;99.90
15834;DHT22;8017;50.812;4.934;2023-02-01T12:42:33;9.70;99.90
15834;DHT22;8017;50.812;4.934;2023-02-01T12:45:43;9.60;99.90
15834;DHT22;8017;50.812;4.934;2023-02-01T12:48:56;9.60;99.90
15834;DHT22;8017;50.812;4.934;2023-02-01T12:52:02;9.70;99.90
15834;DHT22;8017;50.812;4.934;2023-02-01T12:55:15;9.90;99.90
15834;DHT22;8017;50.812;4.934;2023-02-01T12:58:22;10.10;99.90
15834;DHT22;8017;50.812;4.934;2023-02-01T13:01:27;10.00;99.90
15834;DHT22;8017;50.812;4.934;2023-02-01T13:04:34;10.20;99.90
15834;DHT22;8017;50.812;4.934;2023-02-01T13:07:42;10.20;99.90
15834;DHT22;8017;50.812;4.934;2023-02-01T13:10:48;10.20;99.90
15834;DHT22;8017;50.812;4.934;2023-02-01T13:13:58;10.30;99.90
15834;DHT22;8017;50.812;4.934;2023-02-01T13:17:04;10.30;99.90
15834;DHT22;8017;50.812;4.934;2023-02-01T13:20:16;10.20;99.90
15834;DHT22;8017;50.812;4.934;2023-02-01T13:23:25;10.20;99.90
15834;DHT22;8017;50.812;4.934;2023-02-01T13:26:29;10.10;99.90
15834;DHT22;8017;50.812;4.934;2023-02-01T13:29:33;10.20;99.90
15834;DHT22;8017;50.812;4.934;2023-02-01T13:33:08;10.20;99.90
15834;DHT22;8017;50.812;4.934;2023-02-01T13:40:00;10.20;99.90
15834;DHT22;8017;50.812;4.934;2023-02-01T13:43:13;10.20;99.90
15834;DHT22;8017;50.812;4.934;2023-02-01T13:46:16;10.00;99.90
15834;DHT22;8017;50.812;4.934;2023-02-01T13:49:24;10.10;99.90
15834;DHT22;8017;50.812;4.934;2023-02-01T13:52:32;9.90;99.90
15834;DHT22;8017;50.812;4.934;2023-02-01T13:55:36;9.90;99.90
15834;DHT22;8017;50.812;4.934;2023-02-01T13:58:42;9.80;99.90
15834;DHT22;8017;50.812;4.934;2023-02-01T14:01:44;9.80;99.90
15834;DHT22;8017;50.812;4.934;2023-02-01T14:04:47;9.90;99.90
15834;DHT22;8017;50.812;4.934;2023-02-01T14:08:09;9.80;99.90
15834;DHT22;8017;50.812;4.934;2023-02-01T14:11:36;9.80;99.90
15834;DHT22;8017;50.812;4.934;2023-02-01T14:14:41;9.90;99.90
15834;DHT22;8017;50.812;4.934;2023-02-01T14:17:43;9.80;99.90
15834;DHT22;8017;50.812;4.934;2023-02-01T14:20:46;9.90;99.90
15834;DHT22;8017;50.812;4.934;2023-02-01T14:23:59;9.80;99.90
15834;DHT22;8017;50.812;4.934;2023-02-01T14:27:07;9.80;99.90
15834;DHT22;8017;50.812;4.934;2023-02-01T14:30:19;9.90;99.90
15834;DHT22;8017;50.812;4.934;2023-02-01T14:33:23;9.90;99.90
15834;DHT22;8017;50.812;4.934;2023-02-01T14:36:25;10.00;99.90
15834;DHT22;8017;50.812;4.934;2023-02-01T14:39:38;9.90;99.90
15834;DHT22;8017;50.812;4.934;2023-02-01T14:42:45;9.80;99.90
15834;DHT22;8017;50.812;4.934;2023-02-01T14:45:50;9.70;99.90
15834;DHT22;8017;50.812;4.934;2023-02-01T14:48:52;9.70;99.90
15834;DHT22;8017;50.812;4.934;2023-02-01T14:51:56;9.80;99.90
15834;DHT22;8017;50.812;4.934;2023-02-01T14:55:04;9.70;99.90
15834;DHT22;8017;50.812;4.934;2023-02-01T14:58:16;9.70;99.90
15834;DHT22;8017;50.812;4.934;2023-02-01T15:01:23;9.60;99.90
15834;DHT22;8017;50.812;4.934;2023-02-01T15:04:27;9.60;99.90
15834;DHT22;8017;50.812;4.934;2023-02-01T15:07:29;9.60;99.90
15834;DHT22;8017;50.812;4.934;2023-02-01T15:10:33;9.60;99.90
15834;DHT22;8017;50.812;4.934;2023-02-01T15:13:48;9.50;99.90
15834;DHT22;8017;50.812;4.934;2023-02-01T15:16:51;9.50;99.90
15834;DHT22;8017;50.812;4.934;2023-02-01T15:19:55;9.60;99.90
15834;DHT22;8017;50.812;4.934;2023-02-01T15:22:59;9.50;99.90
15834;DHT22;8017;50.812;4.934;2023-02-01T15:26:01;9.50;99.90
15834;DHT22;8017;50.812;4.934;2023-02-01T15:29:03;9.40;99.90
15834;DHT22;8017;50.812;4.934;2023-02-01T15:32:28;9.40;99.90
15834;DHT22;8017;50.812;4.934;2023-02-01T15:35:49;9.30;99.90
15834;DHT22;8017;50.812;4.934;2023-02-01T15:39:17;9.30;99.90
15834;DHT22;8017;50.812;4.934;2023-02-01T15:42:20;9.20;99.90
15834;DHT22;8017;50.812;4.934;2023-02-01T15:45:25;9.20;99.90
15834;DHT22;8017;50.812;4.934;2023-02-01T15:48:32;9.10;99.90
15834;DHT22;8017;50.812;4.934;2023-02-01T15:51:36;9.10;99.90
15834;DHT22;8017;50.812;4.934;2023-02-01T15:54:42;9.10;99.90
15834;DHT22;8017;50.812;4.934;2023-02-01T15:57:46;9.10;99.90
15834;DHT22;8017;50.812;4.934;2023-02-01T16:00:51;9.10;99.90
15834;DHT22;8017;50.812;4.934;2023-02-01T16:04:10;9.00;99.90
15834;DHT22;8017;50.812;4.934;2023-02-01T16:07:26;9.00;99.90
15834;DHT22;8017;50.812;4.934;2023-02-01T16:10:28;8.90;99.90
15834;DHT22;8017;50.812;4.934;2023-02-01T16:13:30;8.90;99.90
15834;DHT22;8017;50.812;4.934;2023-02-01T16:16:32;8.90;99.90
15834;DHT22;8017;50.812;4.934;2023-02-01T16:19:36;8.80;99.90
15834;DHT22;8017;50.812;4.934;2023-02-01T16:22:38;8.90;99.90
15834;DHT22;8017;50.812;4.934;2023-02-01T16:25:40;8.90;99.90
15834;DHT22;8017;50.812;4.934;2023-02-01T16:28:42;8.80;99.90
15834;DHT22;8017;50.812;4.934;2023-02-01T16:31:44;8.80;99.90
15834;DHT22;8017;50.812;4.934;2023-02-01T16:34:48;8.70;99.90
15834;DHT22;8017;50.812;4.934;2023-02-01T16:37:50;8.70;99.90
15834;DHT22;8017;50.812;4.934;2023-02-01T16:40:52;8.70;99.90
15834;DHT22;8017;50.812;4.934;2023-02-01T16:43:55;8.70;99.90
15834;DHT22;8017;50.812;4.934;2023-02-01T16:46:56;8.70;99.90
15834;DHT22;8017;50.812;4.934;2023-02-01T16:50:00;8.60;99.90
15834;DHT22;8017;50.812;4.934;2023-02-01T16:53:02;8.40;99.90
15834;DHT22;8017;50.812;4.934;2023-02-01T16:56:12;8.40;99.90
15834;DHT22;8017;50.812;4.934;2023-02-01T16:59:15;8.30;99.90
15834;DHT22;8017;50.812;4.934;2023-02-01T17:02:18;8.30;99.90
15834;DHT22;8017;50.812;4.934;2023-02-01T17:05:23;8.30;99.90
15834;DHT22;8017;50.812;4.934;2023-02-01T17:08:29;8.20;99.90
15834;DHT22;8017;50.812;4.934;2023-02-01T17:11:32;8.20;99.90
15834;DHT22;8017;50.812;4.934;2023-02-01T17:14:36;8.10;99.90
15834;DHT22;8017;50.812;4.934;2023-02-01T17:17:40;8.10;99.90
15834;DHT22;8017;50.812;4.934;2023-02-01T17:20:45;8.00;99.90
15834;DHT22;8017;50.812;4.934;2023-02-01T17:23:48;8.00;99.90
15834;DHT22;8017;50.812;4.934;2023-02-01T17:26:50;8.00;99.90
15834;DHT22;8017;50.812;4.934;2023-02-01T17:29:52;8.10;99.90
15834;DHT22;8017;50.812;4.934;2023-02-01T17:32:56;8.00;99.90
15834;DHT22;8017;50.812;4.934;2023-02-01T17:36:00;8.10;99.90
15834;DHT22;8017;50.812;4.934;2023-02-01T17:39:02;8.10;99.90
15834;DHT22;8017;50.812;4.934;2023-02-01T17:42:05;8.10;99.90
15834;DHT22;8017;50.812;4.934;2023-02-01T17:48:37;8.10;99.90
15834;DHT22;8017;50.812;4.934;2023-02-01T17:51:40;8.10;99.90
15834;DHT22;8017;50.812;4.934;2023-02-01T17:54:42;8.00;99.90
15834;DHT22;8017;50.812;4.934;2023-02-01T17:57:44;8.10;99.90
15834;DHT22;8017;50.812;4.934;2023-02-01T18:00:48;8.10;99.90
15834;DHT22;8017;50.812;4.934;2023-02-01T18:03:50;8.10;99.90
15834;DHT22;8017;50.812;4.934;2023-02-01T18:06:53;8.00;99.90
15834;DHT22;8017;50.812;4.934;2023-02-01T18:09:57;8.00;99.90
15834;DHT22;8017;50.812;4.934;2023-02-01T18:12:59;8.00;99.90
15834;DHT22;8017;50.812;4.934;2023-02-01T18:16:01;8.00;99.90
15834;DHT22;8017;50.812;4.934;2023-02-01T18:19:04;8.00;99.90
15834;DHT22;8017;50.812;4.934;2023-02-01T18:22:11;8.00;99.90
15834;DHT22;8017;50.812;4.934;2023-02-01T18:25:16;8.00;99.90
15834;DHT22;8017;50.812;4.934;2023-02-01T18:28:20;8.00;99.90
15834;DHT22;8017;50.812;4.934;2023-02-01T18:31:24;8.00;99.90
15834;DHT22;8017;50.812;4.934;2023-02-01T18:34:26;8.00;99.90
15834;DHT22;8017;50.812;4.934;2023-02-01T18:37:31;7.90;99.90
15834;DHT22;8017;50.812;4.934;2023-02-01T18:40:35;7.90;99.90
15834;DHT22;8017;50.812;4.934;2023-02-01T18:43:38;7.90;99.90
15834;DHT22;8017;50.812;4.934;2023-02-01T18:46:40;7.90;99.90
15834;DHT22;8017;50.812;4.934;2023-02-01T18:49:41;7.90;99.90
15834;DHT22;8017;50.812;4.934;2023-02-01T18:52:45;7.80;99.90
15834;DHT22;8017;50.812;4.934;2023-02-01T18:55:47;7.80;99.90
15834;DHT22;8017;50.812;4.934;2023-02-01T18:58:49;7.80;99.90
15834;DHT22;8017;50.812;4.934;2023-02-01T19:01:51;7.80;99.90
15834;DHT22;8017;50.812;4.934;2023-02-01T19:04:53;7.70;99.90
15834;DHT22;8017;50.812;4.934;2023-02-01T19:07:56;7.70;99.90
15834;DHT22;8017;50.812;4.934;2023-02-01T19:10:58;7.70;99.90
15834;DHT22;8017;50.812;4.934;2023-02-01T19:14:00;7.80;99.90
15834;DHT22;8017;50.812;4.934;2023-02-01T19:17:02;7.70;99.90
15834;DHT22;8017;50.812;4.934;2023-02-01T19:20:05;7.70;99.90
15834;DHT22;8017;50.812;4.934;2023-02-01T19:23:08;7.70;99.90
15834;DHT22;8017;50.812;4.934;2023-02-01T19:26:11;7.70;99.90
15834;DHT22;8017;50.812;4.934;2023-02-01T19:29:13;7.70;99.90
15834;DHT22;8017;50.812;4.934;2023-02-01T19:32:15;7.70;99.90
15834;DHT22;8017;50.812;4.934;2023-02-01T19:35:19;7.70;99.90
15834;DHT22;8017;50.812;4.934;2023-02-01T19:38:22;7.70;99.90
15834;DHT22;8017;50.812;4.934;2023-02-01T19:41:24;7.70;99.90
15834;DHT22;8017;50.812;4.934;2023-02-01T19:44:26;7.70;99.90
15834;DHT22;8017;50.812;4.934;2023-02-01T19:47:28;7.70;99.90
15834;DHT22;8017;50.812;4.934;2023-02-01T19:50:30;7.70;99.90
15834;DHT22;8017;50.812;4.934;2023-02-01T19:53:33;7.70;99.90
15834;DHT22;8017;50.812;4.934;2023-02-01T19:56:36;7.70;99.90
15834;DHT22;8017;50.812;4.934;2023-02-01T19:59:38;7.70;99.90
15834;DHT22;8017;50.812;4.934;2023-02-01T20:02:40;7.70;99.90
15834;DHT22;8017;50.812;4.934;2023-02-01T20:05:42;7.70;99.90
15834;DHT22;8017;50.812;4.934;2023-02-01T20:08:47;7.70;99.90
15834;DHT22;8017;50.812;4.934;2023-02-01T20:11:51;7.70;99.90
15834;DHT22;8017;50.812;4.934;2023-02-01T20:14:54;7.70;99.90
15834;DHT22;8017;50.812;4.934;2023-02-01T20:17:56;7.70;99.90
15834;DHT22;8017;50.812;4.934;2023-02-01T20:20:58;7.70;99.90
15834;DHT22;8017;50.812;4.934;2023-02-01T20:24:02;7.70;99.90